Time;durP1;ratioP1;P1;durP2;ratioP2;P2;SDS_P1;SDS_P2;PMS_P1;PMS_P2;Temp;Humidity;BMP_temperature;BMP_pressure;BME280_temperature;BME280_humidity;BME280_pressure;Samples;Min_cycle;Max_cycle;Signal;HPM_P1;HPM_P2
2021/05/10 00:00:57;;;;;;;;;;;;;;;8.63;59.22;96299.72;3589280;39;19950;-52
2021/05/10 00:03:25;;;;;;;;;;;;;;;8.60;59.53;96307.03;3593729;39;19943;-53
2021/05/10 00:05:52;;;;;;;;;;;;;;;8.56;59.10;96305.88;3586116;39;19954;-53
2021/05/10 00:08:21;;;;;;;;;;;;;;;8.51;59.17;96308.44;3584907;39;19963;-53
2021/05/10 00:10:49;;;;;;;;;;;;;;;8.45;59.62;96306.69;3564868;39;20469;-52
2021/05/10 00:13:18;;;;;;;;;;;;;;;8.48;58.47;96308.09;3578141;39;19969;-53
2021/05/10 00:15:48;;;;;;;;;;;;;;;8.50;58.90;96316.53;3568467;39;19943;-53
2021/05/10 00:18:17;;;;;;;;;;;;;;;8.44;59.20;96320.84;3587477;39;20471;-52
2021/05/10 00:20:45;;;;;;;;;;;;;;;8.39;59.49;96297.09;3586708;39;19954;-52
2021/05/10 00:23:13;;;;;;;;;;;;;;;8.31;60.44;96306.94;3586313;39;20287;-53
2021/05/10 00:25:41;;;;;;;;;;;;;;;8.29;59.95;96311.66;3584493;39;20169;-52
2021/05/10 00:28:08;;;;;;;;;;;;;;;8.29;60.93;96303.75;3592574;39;19949;-53
2021/05/10 00:30:35;;;;;;;;;;;;;;;8.30;60.93;96302.72;3603039;39;19950;-53
2021/05/10 00:33:03;;;;;;;;;;;;;;;8.26;61.32;96312.09;3600414;39;19953;-53
2021/05/10 00:35:30;;;;;;;;;;;;;;;8.23;60.25;96298.63;3604457;39;19982;-54
2021/05/10 00:38:00;;;;;;;;;;;;;;;8.25;59.35;96299.16;3598968;39;20355;-54
2021/05/10 00:40:29;;;;;;;;;;;;;;;8.24;60.09;96302.84;3608901;39;19947;-55
2021/05/10 00:42:56;;;;;;;;;;;;;;;8.19;60.09;96295.63;3598005;39;20538;-53
2021/05/10 00:45:24;;;;;;;;;;;;;;;8.14;59.89;96296.34;3605763;39;20406;-53
2021/05/10 00:47:51;;;;;;;;;;;;;;;8.09;59.72;96290.16;3595303;39;19948;-53
2021/05/10 00:50:19;;;;;;;;;;;;;;;8.10;59.21;96303.09;3608224;39;20345;-53
2021/05/10 00:52:46;;;;;;;;;;;;;;;8.08;60.15;96299.06;3586797;39;19943;-53
2021/05/10 00:55:14;;;;;;;;;;;;;;;8.07;59.42;96294.84;3607645;39;19947;-53
2021/05/10 00:57:46;;;;;;;;;;;;;;;8.00;60.07;96298.41;3593841;39;19946;-53
2021/05/10 01:00:14;;;;;;;;;;;;;;;7.95;61.24;96281.72;3602336;39;19943;-52
2021/05/10 01:02:42;;;;;;;;;;;;;;;7.91;60.72;96288.47;3608981;39;20310;-52
2021/05/10 01:05:11;;;;;;;;;;;;;;;7.92;60.48;96282.19;3607734;39;20351;-53
2021/05/10 01:07:39;;;;;;;;;;;;;;;7.98;60.14;96289.94;3607625;39;19944;-54
2021/05/10 01:10:11;;;;;;;;;;;;;;;8.03;60.36;96283.22;3588755;39;19948;-53
2021/05/10 01:12:38;;;;;;;;;;;;;;;8.04;60.40;96292.69;3589156;39;20510;-53
2021/05/10 01:15:07;;;;;;;;;;;;;;;8.04;59.26;96292.69;3586132;39;19947;-52
2021/05/10 01:17:34;;;;;;;;;;;;;;;8.06;59.81;96288.81;3600850;39;19950;-53
2021/05/10 01:20:06;;;;;;;;;;;;;;;8.06;59.03;96286.19;3608117;39;21898;-52
2021/05/10 01:22:41;;;;;;;;;;;;;;;8.06;59.42;96286.19;3606027;39;19947;-53
2021/05/10 01:25:09;;;;;;;;;;;;;;;8.04;60.24;96277.72;3603907;39;20202;-54
2021/05/10 01:27:36;;;;;;;;;;;;;;;8.01;60.28;96278.19;3596915;39;20026;-53
2021/05/10 01:30:14;;;;;;;;;;;;;;;8.00;61.05;96281.81;3608004;39;19947;-52
2021/05/10 01:32:41;;;;;;;;;;;;;;;7.95;60.54;96281.72;3592263;39;19944;-53
2021/05/10 01:35:08;;;;;;;;;;;;;;;7.90;61.29;96279.81;3595905;39;19955;-53
2021/05/10 01:37:36;;;;;;;;;;;;;;;7.85;62.00;96285.75;3604620;39;19947;-53
2021/05/10 01:40:07;;;;;;;;;;;;;;;7.81;62.12;96289.06;3595630;39;19947;-52
2021/05/10 01:42:34;;;;;;;;;;;;;;;7.75;61.86;96303.09;3607267;39;19942;-52
2021/05/10 01:45:02;;;;;;;;;;;;;;;7.68;62.16;96296.13;3583940;39;19951;-52
2021/05/10 01:47:29;;;;;;;;;;;;;;;7.62;63.59;96294.41;3607762;39;19954;-53
2021/05/10 01:49:56;;;;;;;;;;;;;;;7.56;64.27;96281.38;3605182;39;20207;-52
2021/05/10 01:52:23;;;;;;;;;;;;;;;7.46;64.40;96292.44;3604321;39;19947;-53
2021/05/10 01:54:52;;;;;;;;;;;;;;;7.35;65.18;96280.91;3599936;39;20406;-52
2021/05/10 01:57:20;;;;;;;;;;;;;;;7.31;65.57;96285.00;3583565;39;19943;-53
2021/05/10 01:59:47;;;;;;;;;;;;;;;7.30;65.11;96283.41;3604674;39;19937;-53
2021/05/10 02:02:15;;;;;;;;;;;;;;;7.29;64.64;96282.59;3604416;39;19943;-52
2021/05/10 02:05:01;;;;;;;;;;;;;;;7.25;65.42;96278.03;3588449;39;19943;-52
2021/05/10 02:07:28;;;;;;;;;;;;;;;7.18;65.66;96275.50;3602124;39;19954;-53
2021/05/10 02:09:55;;;;;;;;;;;;;;;7.11;66.53;96270.38;3605030;39;19944;-53
2021/05/10 02:12:22;;;;;;;;;;;;;;;7.03;66.42;96263.59;3610188;39;20224;-53
2021/05/10 02:14:50;;;;;;;;;;;;;;;6.99;66.39;96272.16;3606288;39;19936;-53
2021/05/10 02:17:17;;;;;;;;;;;;;;;6.95;66.74;96273.63;3593421;39;19943;-52
2021/05/10 02:19:44;;;;;;;;;;;;;;;6.92;66.40;96277.50;3594342;39;20194;-53
2021/05/10 02:22:11;;;;;;;;;;;;;;;6.88;66.52;96266.66;3604495;39;19944;-52
2021/05/10 02:24:38;;;;;;;;;;;;;;;6.84;67.07;96264.66;3605148;39;19948;-53
2021/05/10 02:27:05;;;;;;;;;;;;;;;6.83;67.42;96263.88;3603886;39;20318;-53
2021/05/10 02:29:33;;;;;;;;;;;;;;;6.81;67.52;96259.91;3606704;39;19947;-55
2021/05/10 02:32:00;;;;;;;;;;;;;;;6.81;68.01;96267.75;3595525;39;19936;-53
2021/05/10 02:34:27;;;;;;;;;;;;;;;6.78;68.22;96276.84;3594984;39;20467;-54
2021/05/10 02:36:54;;;;;;;;;;;;;;;6.75;68.37;96267.63;3602364;39;19943;-53
2021/05/10 02:39:21;;;;;;;;;;;;;;;6.67;67.91;96274.97;3601847;39;19944;-53
2021/05/10 02:41:48;;;;;;;;;;;;;;;6.62;67.98;96270.41;3605236;39;19947;-54
2021/05/10 02:44:15;;;;;;;;;;;;;;;6.61;67.85;96274.03;3603025;39;19970;-54
2021/05/10 02:46:42;;;;;;;;;;;;;;;6.57;67.52;96275.53;3598728;39;20007;-53
2021/05/10 02:49:09;;;;;;;;;;;;;;;6.52;67.58;96278.81;3584642;39;19932;-54
2021/05/10 02:51:36;;;;;;;;;;;;;;;6.45;68.71;96268.41;3604256;39;19943;-52
2021/05/10 02:54:03;;;;;;;;;;;;;;;6.38;68.52;96291.25;3607730;39;19947;-54
2021/05/10 02:56:30;;;;;;;;;;;;;;;6.36;68.89;96277.56;3606567;39;19939;-54
2021/05/10 02:58:58;;;;;;;;;;;;;;;6.30;68.57;96281.09;3603329;39;19943;-54
2021/05/10 03:01:24;;;;;;;;;;;;;;;6.29;68.97;96282.09;3600118;39;19943;-53
2021/05/10 03:03:51;;;;;;;;;;;;;;;6.28;68.99;96285.72;3596452;39;20216;-53
2021/05/10 03:06:19;;;;;;;;;;;;;;;6.28;67.92;96278.66;3602586;39;20016;-53
2021/05/10 03:08:46;;;;;;;;;;;;;;;6.28;68.72;96283.13;3604355;39;20328;-53
2021/05/10 03:11:13;;;;;;;;;;;;;;;6.28;68.91;96283.91;3607728;39;19944;-52
2021/05/10 03:13:40;;;;;;;;;;;;;;;6.24;68.80;96287.19;3606565;39;19941;-52
2021/05/10 03:16:08;;;;;;;;;;;;;;;6.23;70.65;96278.53;3603961;39;19943;-53
2021/05/10 03:18:35;;;;;;;;;;;;;;;6.32;69.36;96265.94;3590756;39;19943;-53
2021/05/10 03:21:03;;;;;;;;;;;;;;;6.44;68.65;96284.34;3602778;39;20016;-53
2021/05/10 03:23:30;;;;;;;;;;;;;;;6.50;69.43;96280.03;3592525;39;19953;-53
2021/05/10 03:25:57;;;;;;;;;;;;;;;6.57;67.48;96280.78;3584881;39;19942;-52
2021/05/10 03:28:24;;;;;;;;;;;;;;;6.63;68.07;96282.50;3595125;39;19942;-53
2021/05/10 03:30:50;;;;;;;;;;;;;;;6.70;66.89;96285.84;3595353;39;19935;-54
2021/05/10 03:33:17;;;;;;;;;;;;;;;6.72;66.85;96283.00;3606881;39;20508;-52
2021/05/10 03:35:45;;;;;;;;;;;;;;;6.80;66.35;96285.31;3607190;39;19952;-55
2021/05/10 03:38:11;;;;;;;;;;;;;;;6.83;65.36;96289.31;3594302;39;19939;-54
2021/05/10 03:40:38;;;;;;;;;;;;;;;6.86;65.62;96296.72;3606782;39;19940;-56
2021/05/10 03:43:06;;;;;;;;;;;;;;;6.87;66.92;96287.84;3599192;39;19950;-57
2021/05/10 03:45:35;;;;;;;;;;;;;;;6.90;66.54;96290.81;3604416;39;19943;-52
2021/05/10 03:48:02;;;;;;;;;;;;;;;6.92;66.15;96286.16;3595888;39;19950;-53
2021/05/10 03:50:29;;;;;;;;;;;;;;;6.99;65.61;96293.13;3604211;39;19947;-53
2021/05/10 03:52:56;;;;;;;;;;;;;;;7.04;65.57;96294.06;3608843;39;19943;-52
2021/05/10 03:55:23;;;;;;;;;;;;;;;7.12;66.08;96290.31;3599645;39;20476;-53
2021/05/10 03:57:52;;;;;;;;;;;;;;;7.56;65.23;96289.25;3603975;39;19973;-54
2021/05/10 04:00:19;;;;;;;;;;;;;;;9.23;60.39;96296.59;3604463;39;21645;-53
2021/05/10 04:02:46;;;;;;;;;;;;;;;10.43;55.91;96284.13;3606017;39;19959;-53
2021/05/10 04:08:01;;;;;;;;;;;;;;;12.13;50.86;96289.31;3593156;39;20315;-54
2021/05/10 04:10:44;;;;;;;;;;;;;;;13.04;49.34;96286.50;3582349;39;20790;-53
2021/05/10 04:15:58;;;;;;;;;;;;;;;14.60;43.68;96279.97;3605436;39;19943;-54
2021/05/10 04:18:24;;;;;;;;;;;;;;;15.09;43.83;96290.91;3593425;39;19950;-54
2021/05/10 04:20:52;;;;;;;;;;;;;;;15.35;42.65;96287.03;3607557;39;19948;-55
2021/05/10 04:23:19;;;;;;;;;;;;;;;15.15;43.57;96285.28;3602646;39;20378;-53
2021/05/10 04:25:47;;;;;;;;;;;;;;;15.26;41.69;96290.56;3601648;39;20294;-54
2021/05/10 04:28:15;;;;;;;;;;;;;;;15.88;40.37;96287.44;3601870;39;19948;-56
2021/05/10 04:30:42;;;;;;;;;;;;;;;16.49;38.94;96301.19;3596396;39;19944;-54
2021/05/10 04:33:11;;;;;;;;;;;;;;;16.95;36.19;96305.16;3594294;39;20464;-54
2021/05/10 04:35:38;;;;;;;;;;;;;;;17.29;36.67;96293.53;3596821;39;19944;-55
2021/05/10 04:38:09;;;;;;;;;;;;;;;17.44;35.45;96303.94;3597487;39;19944;-54
2021/05/10 04:40:37;;;;;;;;;;;;;;;17.96;32.60;96297.78;3594229;39;19950;-55
2021/05/10 04:43:05;;;;;;;;;;;;;;;18.37;32.44;96289.06;3602108;39;19952;-54
2021/05/10 04:45:32;;;;;;;;;;;;;;;18.85;31.77;96289.72;3602685;39;19958;-55
2021/05/10 04:47:59;;;;;;;;;;;;;;;19.48;32.10;96292.63;3596845;39;19947;-55
2021/05/10 04:50:26;;;;;;;;;;;;;;;19.83;30.84;96285.59;3597678;39;19943;-54
2021/05/10 04:52:53;;;;;;;;;;;;;;;20.08;31.31;96279.94;3587074;39;19944;-55
2021/05/10 04:55:20;;;;;;;;;;;;;;;20.40;29.98;96286.06;3586798;39;19953;-54
2021/05/10 04:57:47;;;;;;;;;;;;;;;20.11;28.73;96277.44;3596433;39;19943;-55
2021/05/10 05:00:15;;;;;;;;;;;;;;;20.27;28.29;96291.19;3607269;39;20347;-55
2021/05/10 05:02:42;;;;;;;;;;;;;;;20.30;28.48;96289.00;3602082;39;19948;-55
2021/05/10 05:05:10;;;;;;;;;;;;;;;19.48;29.20;96289.97;3588115;39;20208;-53
2021/05/10 05:07:40;;;;;;;;;;;;;;;18.68;29.84;96283.09;3593155;39;19936;-53
2021/05/10 05:10:08;;;;;;;;;;;;;;;18.13;31.43;96281.22;3605630;39;19946;-53
2021/05/10 05:12:38;;;;;;;;;;;;;;;17.59;32.56;96286.13;3608090;39;19950;-54
2021/05/10 05:15:09;;;;;;;;;;;;;;;17.00;34.13;96291.78;3606614;39;19944;-54
2021/05/10 05:17:39;;;;;;;;;;;;;;;16.51;35.18;96286.50;3603664;39;19948;-54
2021/05/10 05:20:06;;;;;;;;;;;;;;;16.06;36.15;96281.41;3607737;39;19949;-54
2021/05/10 05:22:34;;;;;;;;;;;;;;;15.76;36.49;96279.78;3607194;39;19944;-54
2021/05/10 05:25:05;;;;;;;;;;;;;;;15.61;36.88;96289.50;3604727;39;19942;-55
2021/05/10 05:27:32;;;;;;;;;;;;;;;15.36;37.58;96277.97;3593819;39;19944;-53
2021/05/10 05:29:59;;;;;;;;;;;;;;;15.11;38.53;96268.34;3604850;39;19940;-54
2021/05/10 05:32:26;;;;;;;;;;;;;;;14.89;38.41;96282.00;3606217;39;19950;-53
2021/05/10 05:34:54;;;;;;;;;;;;;;;14.89;38.83;96271.38;3597141;39;19949;-54
2021/05/10 05:37:22;;;;;;;;;;;;;;;15.03;38.12;96260.94;3597195;39;19939;-53
2021/05/10 05:39:49;;;;;;;;;;;;;;;15.09;37.35;96262.50;3604885;39;19947;-53
2021/05/10 05:42:16;;;;;;;;;;;;;;;15.06;38.10;96255.06;3601531;39;19949;-53
2021/05/10 05:44:48;;;;;;;;;;;;;;;15.11;37.50;96259.56;3596210;39;19947;-55
2021/05/10 05:47:22;;;;;;;;;;;;;;;15.06;38.24;96265.69;3607583;39;19950;-54
2021/05/10 05:49:50;;;;;;;;;;;;;;;15.14;37.66;96246.50;3591644;39;19950;-54
2021/05/10 05:52:17;;;;;;;;;;;;;;;15.27;37.23;96250.41;3592974;39;20300;-54
2021/05/10 05:54:44;;;;;;;;;;;;;;;15.40;38.03;96243.66;3585768;39;19954;-53
2021/05/10 05:57:11;;;;;;;;;;;;;;;15.50;37.32;96259.56;3598372;39;20247;-57
2021/05/10 05:59:38;;;;;;;;;;;;;;;15.59;36.40;96251.75;3596930;39;19944;-54
2021/05/10 06:02:05;;;;;;;;;;;;;;;15.65;37.22;96250.63;3597330;39;19973;-54
2021/05/10 06:04:32;;;;;;;;;;;;;;;15.68;37.05;96242.09;3605755;39;19948;-54
2021/05/10 06:06:59;;;;;;;;;;;;;;;15.78;37.18;96248.41;3589864;39;19939;-54
2021/05/10 06:09:26;;;;;;;;;;;;;;;15.86;37.44;96255.78;3610993;39;19947;-54
2021/05/10 06:11:56;;;;;;;;;;;;;;;15.95;36.95;96242.66;3610044;39;20338;-54
2021/05/10 06:14:23;;;;;;;;;;;;;;;16.03;36.61;96260.66;3599148;39;19943;-53
2021/05/10 06:16:50;;;;;;;;;;;;;;;16.17;35.56;96246.69;3602323;39;20088;-53
2021/05/10 06:19:17;;;;;;;;;;;;;;;16.26;33.25;96245.00;3597971;39;19953;-54
2021/05/10 06:21:44;;;;;;;;;;;;;;;16.45;33.38;96258.34;3609311;39;19951;-53
2021/05/10 06:24:11;;;;;;;;;;;;;;;16.58;33.05;96249.66;3598747;39;19943;-54
2021/05/10 06:26:40;;;;;;;;;;;;;;;16.69;32.38;96252.19;3594501;39;19948;-54
2021/05/10 06:29:07;;;;;;;;;;;;;;;16.82;32.73;96251.47;3604868;39;19935;-54
2021/05/10 06:31:34;;;;;;;;;;;;;;;16.94;33.48;96247.59;3599170;39;19939;-55
2021/05/10 06:34:05;;;;;;;;;;;;;;;17.05;33.23;96259.72;3608474;39;19939;-54
2021/05/10 06:36:32;;;;;;;;;;;;;;;17.14;32.80;96252.69;3597514;39;19940;-55
2021/05/10 06:38:59;;;;;;;;;;;;;;;17.23;32.62;96238.69;3609926;39;19942;-55
2021/05/10 06:41:26;;;;;;;;;;;;;;;17.36;32.11;96233.38;3605702;39;20754;-54
2021/05/10 06:43:53;;;;;;;;;;;;;;;17.43;32.34;96245.56;3579051;39;19936;-53
2021/05/10 06:46:20;;;;;;;;;;;;;;;17.40;31.76;96230.97;3596961;39;20225;-54
2021/05/10 06:48:47;;;;;;;;;;;;;;;17.50;31.95;96233.44;3604582;39;20306;-56
2021/05/10 06:51:14;;;;;;;;;;;;;;;17.59;31.71;96227.44;3610315;39;19965;-55
2021/05/10 06:53:40;;;;;;;;;;;;;;;17.69;32.57;96232.59;3597831;39;19942;-54
2021/05/10 06:56:08;;;;;;;;;;;;;;;17.74;31.28;96224.50;3600044;39;19940;-54
2021/05/10 06:58:34;;;;;;;;;;;;;;;17.82;32.05;96221.16;3610881;39;20339;-55
2021/05/10 07:01:02;;;;;;;;;;;;;;;17.89;31.67;96222.66;3587279;39;19946;-54
2021/05/10 07:03:29;;;;;;;;;;;;;;;17.77;31.85;96223.94;3598061;39;19947;-53
2021/05/10 07:05:56;;;;;;;;;;;;;;;17.80;31.90;96211.88;3598606;39;19936;-53
2021/05/10 07:08:23;;;;;;;;;;;;;;;17.92;31.76;96222.84;3594779;39;20030;-53
2021/05/10 07:10:51;;;;;;;;;;;;;;;17.93;32.40;96223.63;3594988;39;20178;-54
2021/05/10 07:13:18;;;;;;;;;;;;;;;18.05;32.28;96212.50;3605573;39;19942;-54
2021/05/10 07:15:45;;;;;;;;;;;;;;;18.13;32.60;96217.94;3601939;39;19942;-53
2021/05/10 07:18:12;;;;;;;;;;;;;;;18.14;31.15;96218.72;3601169;39;20212;-56
2021/05/10 07:20:41;;;;;;;;;;;;;;;18.25;32.44;96212.09;3607070;39;20311;-53
2021/05/10 07:23:10;;;;;;;;;;;;;;;18.32;31.50;96214.38;3598294;39;19936;-54
2021/05/10 07:25:46;;;;;;;;;;;;;;;18.38;32.01;96207.03;3606788;39;19942;-55
2021/05/10 07:28:14;;;;;;;;;;;;;;;18.34;31.81;96204.19;3598121;39;20313;-55
2021/05/10 07:30:41;;;;;;;;;;;;;;;18.47;31.64;96220.50;3606598;39;19974;-55
2021/05/10 07:33:08;;;;;;;;;;;;;;;18.50;31.84;96215.34;3597441;39;19944;-54
2021/05/10 07:35:35;;;;;;;;;;;;;;;18.60;32.11;96207.09;3597902;39;19959;-55
2021/05/10 07:38:03;;;;;;;;;;;;;;;18.65;30.80;96214.22;3580481;39;19946;-54
2021/05/10 07:40:31;;;;;;;;;;;;;;;18.68;30.29;96208.28;3601024;39;20216;-54
2021/05/10 07:42:58;;;;;;;;;;;;;;;18.73;31.82;96216.19;3579620;39;19946;-54
2021/05/10 07:45:26;;;;;;;;;;;;;;;18.78;31.66;96214.47;3601160;39;20407;-55
2021/05/10 07:47:56;;;;;;;;;;;;;;;18.82;30.18;96213.59;3600483;39;19946;-55
2021/05/10 07:50:23;;;;;;;;;;;;;;;18.85;31.13;96217.53;3596541;39;21515;-56
2021/05/10 07:52:51;;;;;;;;;;;;;;;18.89;31.56;96205.19;3598051;39;19944;-54
2021/05/10 07:55:18;;;;;;;;;;;;;;;18.95;31.91;96211.22;3601185;39;19973;-53
2021/05/10 07:57:46;;;;;;;;;;;;;;;19.03;30.04;96213.94;3596902;39;19943;-53
2021/05/10 08:00:26;;;;;;;;;;;;;;;19.16;32.13;96214.19;3601993;39;19940;-54
2021/05/10 08:02:54;;;;;;;;;;;;;;;19.23;31.13;96205.75;3608620;39;19936;-54
2021/05/10 08:05:21;;;;;;;;;;;;;;;19.32;31.72;96196.69;3609580;39;19993;-53
2021/05/10 08:07:48;;;;;;;;;;;;;;;19.27;29.92;96194.13;3607952;39;19948;-54
2021/05/10 08:10:15;;;;;;;;;;;;;;;19.37;30.14;96185.06;3606002;39;20610;-54
2021/05/10 08:12:42;;;;;;;;;;;;;;;19.41;30.21;96187.91;3605276;39;20672;-54
2021/05/10 08:15:10;;;;;;;;;;;;;;;19.44;30.00;96184.63;3606971;39;20615;-54
2021/05/10 08:17:37;;;;;;;;;;;;;;;19.47;31.52;96186.72;3607761;39;19944;-57
2021/05/10 08:20:05;;;;;;;;;;;;;;;19.50;30.66;96178.09;3597703;39;20204;-53
2021/05/10 08:22:32;;;;;;;;;;;;;;;19.46;30.75;96180.56;3605946;39;19944;-53
2021/05/10 08:25:01;;;;;;;;;;;;;;;19.50;30.52;96192.22;3597477;39;19953;-54
2021/05/10 08:27:28;;;;;;;;;;;;;;;19.56;30.23;96176.84;3611688;39;19944;-53
2021/05/10 08:29:56;;;;;;;;;;;;;;;19.65;29.75;96179.56;3597258;39;19950;-53
2021/05/10 08:32:23;;;;;;;;;;;;;;;19.73;30.47;96175.34;3597613;39;20396;-52
2021/05/10 08:34:51;;;;;;;;;;;;;;;19.83;29.64;96183.88;3597565;39;20592;-53
2021/05/10 08:37:20;;;;;;;;;;;;;;;19.90;29.51;96170.06;3609750;39;19941;-54
2021/05/10 08:39:47;;;;;;;;;;;;;;;19.96;29.75;96170.72;3597905;39;20302;-54
2021/05/10 08:42:18;;;;;;;;;;;;;;;20.01;29.72;96170.59;3607205;39;19943;-55
2021/05/10 08:44:45;;;;;;;;;;;;;;;20.08;29.88;96149.50;3590795;39;20216;-53
2021/05/10 08:47:12;;;;;;;;;;;;;;;20.13;30.21;96156.59;3603924;39;19971;-53
2021/05/10 08:49:39;;;;;;;;;;;;;;;20.20;29.41;96151.59;3610440;39;19947;-54
2021/05/10 08:52:06;;;;;;;;;;;;;;;20.25;29.53;96153.34;3609686;39;19935;-55
2021/05/10 08:54:33;;;;;;;;;;;;;;;20.37;29.22;96152.72;3588248;39;19948;-53
2021/05/10 08:57:01;;;;;;;;;;;;;;;20.31;29.17;96156.66;3602098;39;20277;-54
2021/05/10 08:59:28;;;;;;;;;;;;;;;20.40;29.27;96154.75;3609373;39;20476;-54
2021/05/10 09:01:58;;;;;;;;;;;;;;;20.46;29.12;96156.22;3611688;39;19945;-54
2021/05/10 09:04:29;;;;;;;;;;;;;;;20.52;29.33;96148.81;3608436;39;19944;-54
2021/05/10 09:07:15;;;;;;;;;;;;;;;20.57;30.29;96138.72;3608121;39;20216;-53
2021/05/10 09:10:02;;;;;;;;;;;;;;;20.71;29.12;96135.88;3596038;39;19947;-54
2021/05/10 09:12:58;;;;;;;;;;;;;;;20.69;28.32;96129.25;3607100;39;20329;-54
2021/05/10 09:15:28;;;;;;;;;;;;;;;20.73;29.02;96140.94;3591718;39;19967;-54
2021/05/10 09:17:57;;;;;;;;;;;;;;;20.82;28.78;96139.06;3610364;39;20276;-54
2021/05/10 09:20:25;;;;;;;;;;;;;;;20.84;28.54;96136.84;3589737;39;19942;-54
2021/05/10 09:22:56;;;;;;;;;;;;;;;20.93;28.82;96130.69;3606989;39;19944;-54
2021/05/10 09:25:52;;;;;;;;;;;;;;;21.08;29.59;96126.72;3597638;39;19949;-54
2021/05/10 09:28:23;;;;;;;;;;;;;;;21.17;28.71;96116.78;3563831;39;19945;-55
2021/05/10 09:30:55;;;;;;;;;;;;;;;21.28;28.96;96118.00;3597878;39;19949;-55
2021/05/10 09:33:46;;;;;;;;;;;;;;;21.43;28.82;96122.06;3599410;39;19940;-55
2021/05/10 09:36:32;;;;;;;;;;;;;;;21.49;27.74;96107.34;3596794;39;19944;-55
2021/05/10 09:39:02;;;;;;;;;;;;;;;21.47;28.07;96093.47;3594140;39;19949;-55
2021/05/10 09:41:28;;;;;;;;;;;;;;;21.68;27.72;96116.13;3598014;39;19947;-55
2021/05/10 09:44:06;;;;;;;;;;;;;;;21.69;26.82;96115.03;3606927;39;20346;-55
2021/05/10 09:46:40;;;;;;;;;;;;;;;21.75;27.09;96114.53;3609831;39;19940;-55
2021/05/10 09:49:08;;;;;;;;;;;;;;;21.85;27.63;96110.69;3596416;39;19948;-57
2021/05/10 09:51:35;;;;;;;;;;;;;;;21.93;28.07;96114.47;3597130;39;19943;-55
2021/05/10 09:54:09;;;;;;;;;;;;;;;21.91;26.72;96111.31;3611890;39;19947;-56
2021/05/10 09:56:37;;;;;;;;;;;;;;;21.98;27.70;96110.78;3609784;39;19948;-55
2021/05/10 09:59:06;;;;;;;;;;;;;;;22.12;27.69;96100.59;3599543;39;19939;-54
2021/05/10 10:01:44;;;;;;;;;;;;;;;22.17;26.64;96099.63;3599133;39;19943;-56
2021/05/10 10:04:14;;;;;;;;;;;;;;;22.17;26.47;96096.94;3598471;39;20157;-57
2021/05/10 10:06:41;;;;;;;;;;;;;;;22.19;25.55;96097.41;3611792;39;19944;-56
2021/05/10 10:09:08;;;;;;;;;;;;;;;22.27;28.05;96107.28;3598584;39;19950;-55
2021/05/10 10:11:36;;;;;;;;;;;;;;;22.20;26.44;96101.66;3589845;39;19993;-55
2021/05/10 10:14:03;;;;;;;;;;;;;;;22.21;26.30;96097.88;3609179;39;19949;-55
2021/05/10 10:16:31;;;;;;;;;;;;;;;22.18;26.53;96095.81;3609429;39;19943;-55
2021/05/10 10:19:05;;;;;;;;;;;;;;;22.30;26.90;96101.28;3611292;39;19936;-55
2021/05/10 10:21:37;;;;;;;;;;;;;;;22.36;25.99;96094.56;3611014;39;19948;-57
2021/05/10 10:24:05;;;;;;;;;;;;;;;22.44;26.17;96087.59;3595162;39;20204;-55
2021/05/10 10:26:53;;;;;;;;;;;;;;;22.57;25.34;96078.47;3610172;39;19939;-55
2021/05/10 10:29:20;;;;;;;;;;;;;;;22.69;30.16;96093.88;3597079;39;19942;-54
2021/05/10 10:31:49;;;;;;;;;;;;;;;22.81;29.31;96086.97;3609881;39;19936;-54
2021/05/10 10:34:26;;;;;;;;;;;;;;;22.82;25.35;96089.31;3588741;39;19936;-54
2021/05/10 10:36:57;;;;;;;;;;;;;;;22.86;25.23;96079.50;3602863;39;20295;-56
2021/05/10 10:39:27;;;;;;;;;;;;;;;23.00;25.40;96084.56;3608122;39;19969;-55
2021/05/10 10:42:02;;;;;;;;;;;;;;;23.07;24.83;96067.88;3605481;39;19935;-55
2021/05/10 10:44:39;;;;;;;;;;;;;;;23.07;24.48;96067.88;3597818;39;19935;-55
2021/05/10 10:47:07;;;;;;;;;;;;;;;23.12;25.81;96072.25;3606905;39;20475;-55
2021/05/10 10:49:36;;;;;;;;;;;;;;;23.28;27.00;96070.53;3601618;39;19952;-56
2021/05/10 10:52:04;;;;;;;;;;;;;;;23.40;24.98;96058.19;3603207;39;21540;-54
2021/05/10 10:54:31;;;;;;;;;;;;;;;23.39;24.97;96067.41;3602808;39;19943;-55
2021/05/10 10:57:00;;;;;;;;;;;;;;;23.47;23.93;96066.50;3602932;39;20367;-56
2021/05/10 10:59:28;;;;;;;;;;;;;;;23.52;25.15;96063.59;3600243;39;19944;-55
2021/05/10 11:01:56;;;;;;;;;;;;;;;23.63;24.76;96053.94;3591558;39;20089;-56
2021/05/10 11:04:24;;;;;;;;;;;;;;;23.62;23.86;96052.38;3603547;39;19943;-55
2021/05/10 11:06:52;;;;;;;;;;;;;;;23.69;23.69;96049.13;3591417;39;19948;-55
2021/05/10 11:09:41;;;;;;;;;;;;;;;23.76;23.69;96048.56;3602677;39;19949;-55
2021/05/10 11:12:09;;;;;;;;;;;;;;;23.74;23.59;96056.97;3597018;39;19950;-55
2021/05/10 11:14:43;;;;;;;;;;;;;;;23.85;23.64;96046.50;3603856;39;19943;-55
2021/05/10 11:17:10;;;;;;;;;;;;;;;23.95;24.26;96054.16;3602874;39;19936;-55
2021/05/10 11:19:41;;;;;;;;;;;;;;;24.06;24.39;96048.31;3600795;39;19943;-60
2021/05/10 11:22:26;;;;;;;;;;;;;;;24.19;23.65;96060.63;3601569;39;19944;-56
2021/05/10 11:24:55;;;;;;;;;;;;;;;24.32;23.89;96052.50;3603852;39;19940;-55
2021/05/10 11:27:28;;;;;;;;;;;;;;;24.30;22.47;96035.91;3591537;39;19947;-55
2021/05/10 11:29:56;;;;;;;;;;;;;;;24.31;22.99;96040.19;3584314;39;19944;-55
2021/05/10 11:32:24;;;;;;;;;;;;;;;24.36;23.99;96043.41;3593650;39;19936;-56
2021/05/10 11:34:51;;;;;;;;;;;;;;;-146.28;100.00;62448.88;3599950;39;20526;-56
2021/05/10 11:37:26;;;;;;;;;;;;;;;-146.28;100.00;62448.88;3603502;39;19953;-55
2021/05/10 11:39:56;;;;;;;;;;;;;;;-146.28;100.00;62448.88;3598512;39;19967;-55
2021/05/10 11:42:27;;;;;;;;;;;;;;;-146.28;100.00;62448.88;3601627;39;19944;-56
2021/05/10 11:45:00;;;;;;;;;;;;;;;-146.28;100.00;62448.88;3602096;39;19931;-56
2021/05/10 11:47:31;;;;;;;;;;;;;;;-146.28;100.00;62448.88;3603248;39;19943;-56
2021/05/10 11:50:00;;;;;;;;;;;;;;;-146.28;100.00;62448.88;3593520;39;20269;-56
2021/05/10 11:52:30;;;;;;;;;;;;;;;-146.28;100.00;62448.88;3603164;39;19947;-54
2021/05/10 11:54:59;;;;;;;;;;;;;;;-146.28;100.00;62448.88;3603122;39;19947;-54
2021/05/10 11:57:32;;;;;;;;;;;;;;;-146.28;100.00;62448.88;3591482;39;19935;-54
2021/05/10 12:02:33;;;;;;;;;;;;;;;-146.28;100.00;62448.88;3591066;39;19959;-55
2021/05/10 12:05:06;;;;;;;;;;;;;;;-146.28;100.00;62448.88;3602352;39;19944;-55
2021/05/10 12:07:34;;;;;;;;;;;;;;;-146.28;100.00;62448.88;3603405;39;19952;-55
2021/05/10 12:10:04;;;;;;;;;;;;;;;-146.28;100.00;62448.88;3592250;39;20228;-55
2021/05/10 12:12:33;;;;;;;;;;;;;;;-146.28;100.00;62448.88;3601932;39;19952;-55
2021/05/10 12:15:14;;;;;;;;;;;;;;;-146.28;100.00;62448.88;3592573;39;19947;-55
2021/05/10 12:17:44;;;;;;;;;;;;;;;-146.28;100.00;62448.88;3601131;39;19943;-54
2021/05/10 12:20:12;;;;;;;;;;;;;;;-146.28;100.00;62448.88;3603233;39;19943;-55
2021/05/10 12:22:46;;;;;;;;;;;;;;;-146.28;100.00;62448.88;3600964;39;20389;-55
2021/05/10 12:25:16;;;;;;;;;;;;;;;-146.28;100.00;62448.88;3586357;39;20411;-55
2021/05/10 12:28:03;;;;;;;;;;;;;;;-146.28;100.00;62448.88;3590573;39;19947;-56
2021/05/10 12:30:45;;;;;;;;;;;;;;;-146.28;100.00;62448.88;3596485;39;19950;-54
2021/05/10 12:33:17;;;;;;;;;;;;;;;-146.28;100.00;62448.88;3603170;39;20399;-53
2021/05/10 12:35:46;;;;;;;;;;;;;;;-146.28;100.00;62448.88;3595438;39;19948;-55
2021/05/10 12:38:23;;;;;;;;;;;;;;;-146.28;100.00;62448.88;3607617;39;19956;-54
2021/05/10 12:40:50;;;;;;;;;;;;;;;-146.28;100.00;62448.88;3589808;39;20362;-56
2021/05/10 12:43:19;;;;;;;;;;;;;;;-146.28;100.00;62448.88;3597153;39;20318;-55
2021/05/10 12:45:48;;;;;;;;;;;;;;;-146.28;100.00;62448.88;3608758;39;19943;-54
2021/05/10 12:48:19;;;;;;;;;;;;;;;-146.28;100.00;62448.88;3586915;39;19950;-55
2021/05/10 12:50:48;;;;;;;;;;;;;;;-146.28;100.00;62448.88;3603015;39;19942;-55
2021/05/10 12:53:28;;;;;;;;;;;;;;;-146.28;100.00;62448.88;3608618;39;19947;-55
2021/05/10 12:55:59;;;;;;;;;;;;;;;-146.28;100.00;62448.88;3606493;39;19943;-54
2021/05/10 12:58:26;;;;;;;;;;;;;;;-146.28;100.00;62448.88;3590615;39;20207;-54
2021/05/10 13:00:54;;;;;;;;;;;;;;;-146.28;100.00;62448.88;3596052;39;19932;-55
2021/05/10 13:03:31;;;;;;;;;;;;;;;-146.28;100.00;62448.88;3596438;39;19944;-54